Time;durP1;ratioP1;P1;durP2;ratioP2;P2;SDS_P1;SDS_P2;PMS_P1;PMS_P2;Temp;Humidity;BMP_temperature;BMP_pressure;BME280_temperature;BME280_humidity;BME280_pressure;Samples;Min_cycle;Max_cycle;Signal;HPM_P1;HPM_P2
2020/12/17 00:00:48;;;;;;;1999.90;999.90;;;9.20;99.90;;;;;;5128489;27;20083;-87
2020/12/17 00:03:16;;;;;;;1999.90;999.90;;;9.20;99.90;;;;;;5121608;27;20048;-88
2020/12/17 00:05:43;;;;;;;1999.90;999.90;;;9.20;99.90;;;;;;5113816;28;20047;-88
2020/12/17 00:08:10;;;;;;;1999.90;999.90;;;9.20;99.90;;;;;;5113805;28;20131;-88
2020/12/17 00:10:39;;;;;;;1999.90;999.90;;;9.20;99.90;;;;;;5114540;27;20071;-88
2020/12/17 00:13:07;;;;;;;1999.90;999.90;;;9.20;99.90;;;;;;5113509;28;20082;-88
2020/12/17 00:15:34;;;;;;;1999.90;999.90;;;9.30;99.90;;;;;;5117969;27;20474;-88
2020/12/17 00:18:01;;;;;;;1999.90;999.90;;;9.20;99.90;;;;;;5122939;27;20043;-89
2020/12/17 00:20:28;;;;;;;1999.90;999.90;;;9.20;99.90;;;;;;5121470;27;20070;-89
2020/12/17 00:22:55;;;;;;;1999.90;999.90;;;9.20;99.90;;;;;;5113951;27;20134;-89
2020/12/17 00:25:23;;;;;;;1999.90;999.90;;;9.20;99.90;;;;;;5113910;28;20083;-89
2020/12/17 00:27:51;;;;;;;1999.90;999.90;;;9.20;99.90;;;;;;5119695;27;20044;-89
2020/12/17 00:30:19;;;;;;;1999.90;999.90;;;9.20;99.90;;;;;;5110768;27;20055;-89
2020/12/17 00:32:48;;;;;;;1999.90;999.90;;;9.20;99.90;;;;;;5116100;27;20067;-90
2020/12/17 00:35:16;;;;;;;1999.90;999.90;;;9.20;99.90;;;;;;5113764;28;20052;-89
2020/12/17 00:37:44;;;;;;;1999.90;999.90;;;9.20;99.90;;;;;;5117435;27;20099;-89
2020/12/17 00:40:12;;;;;;;1999.90;999.90;;;9.20;99.90;;;;;;5113570;28;20144;-89
2020/12/17 00:42:40;;;;;;;1999.90;999.90;;;9.20;99.90;;;;;;5113649;28;20096;-89
2020/12/17 00:45:07;;;;;;;1999.90;999.90;;;9.20;99.90;;;;;;5112480;28;20056;-89
2020/12/17 00:47:38;;;;;;;1999.90;999.90;;;9.20;99.90;;;;;;5113618;28;20044;-89
2020/12/17 00:50:06;;;;;;;1999.90;999.90;;;9.20;99.90;;;;;;5118856;27;20092;-89
2020/12/17 00:52:36;;;;;;;1999.90;999.90;;;9.20;99.90;;;;;;5118432;27;20077;-89
2020/12/17 00:55:04;;;;;;;1999.90;999.90;;;9.20;99.90;;;;;;5120092;27;20100;-89
2020/12/17 00:57:31;;;;;;;1999.90;999.90;;;9.20;99.90;;;;;;5124249;27;20082;-89
2020/12/17 00:59:58;;;;;;;1999.90;999.90;;;9.20;99.90;;;;;;5116797;27;20463;-89
2020/12/17 01:02:25;;;;;;;1999.90;999.90;;;9.20;99.90;;;;;;5114208;27;20051;-89
2020/12/17 01:04:53;;;;;;;1999.90;999.90;;;9.20;99.90;;;;;;5113652;28;20078;-89
2020/12/17 01:07:20;;;;;;;1999.90;999.90;;;9.20;99.90;;;;;;5113191;28;20044;-89
2020/12/17 01:09:47;;;;;;;1999.90;999.90;;;9.20;99.90;;;;;;5115215;27;20467;-89
2020/12/17 01:12:15;;;;;;;1999.90;999.90;;;9.20;99.90;;;;;;5118366;28;20060;-88
2020/12/17 01:14:43;;;;;;;1999.90;999.90;;;9.20;99.90;;;;;;5112792;28;20055;-88
2020/12/17 01:17:10;;;;;;;1999.90;999.90;;;9.20;99.90;;;;;;5113264;28;20128;-88
2020/12/17 01:19:37;;;;;;;1999.90;999.90;;;9.20;99.90;;;;;;5115211;28;20146;-88
2020/12/17 01:22:05;;;;;;;1999.90;999.90;;;9.20;99.90;;;;;;5129222;28;20055;-89
2020/12/17 01:24:33;;;;;;;1999.90;999.90;;;9.20;99.90;;;;;;5116132;28;20138;-88
2020/12/17 01:27:00;;;;;;;1999.90;999.90;;;9.20;99.90;;;;;;5114165;28;20130;-96
2020/12/17 01:29:27;;;;;;;1999.90;999.90;;;9.20;99.90;;;;;;5114393;28;20496;-96
2020/12/17 01:31:57;;;;;;;1999.90;999.90;;;9.20;99.90;;;;;;5114470;28;20485;-96
2020/12/17 01:34:25;;;;;;;1999.90;999.90;;;9.20;99.90;;;;;;5114939;28;20058;-96
2020/12/17 01:36:54;;;;;;;1999.90;999.90;;;9.20;99.90;;;;;;5114844;28;20108;-96
2020/12/17 01:39:23;;;;;;;1999.90;999.90;;;9.20;99.90;;;;;;5114512;28;20100;-96
2020/12/17 01:41:54;;;;;;;1999.90;999.90;;;9.20;99.90;;;;;;5114348;28;20138;-96
2020/12/17 01:44:22;;;;;;;1999.90;999.90;;;9.20;99.90;;;;;;5117088;28;20519;-95
2020/12/17 01:46:50;;;;;;;1999.90;999.90;;;9.20;99.90;;;;;;5118449;28;20043;-96
2020/12/17 01:49:23;;;;;;;1999.90;999.90;;;9.10;99.90;;;;;;5117743;28;20067;-96
2020/12/17 01:51:51;;;;;;;1999.90;999.90;;;9.10;99.90;;;;;;5118667;28;20485;-96
2020/12/17 01:54:19;;;;;;;1999.90;999.90;;;9.10;99.90;;;;;;5118311;28;20051;-96
2020/12/17 01:56:52;;;;;;;1999.90;999.90;;;9.10;99.90;;;;;;5118278;28;20054;-95
2020/12/17 01:59:22;;;;;;;1999.90;999.90;;;9.20;99.90;;;;;;5118990;28;20392;-95
2020/12/17 02:01:51;;;;;;;1999.90;999.90;;;9.20;99.90;;;;;;5118061;28;20051;-96
2020/12/17 02:04:21;;;;;;;1999.90;999.90;;;9.20;99.90;;;;;;5117549;28;20044;-95
2020/12/17 02:06:49;;;;;;;1999.90;999.90;;;9.20;99.90;;;;;;5118259;28;20062;-95
2020/12/17 02:09:18;;;;;;;1999.90;999.90;;;9.20;99.90;;;;;;5117539;28;20051;-96
2020/12/17 02:11:53;;;;;;;1999.90;999.90;;;9.10;99.90;;;;;;5117609;28;20214;-95
2020/12/17 02:14:20;;;;;;;1999.90;999.90;;;9.10;99.90;;;;;;5117132;28;20103;-95
2020/12/17 02:16:47;;;;;;;1999.90;999.90;;;9.20;99.90;;;;;;5117981;28;20059;-95
2020/12/17 02:19:15;;;;;;;1999.90;999.90;;;9.20;99.90;;;;;;5117788;28;20079;-95
2020/12/17 02:21:42;;;;;;;1999.90;999.90;;;9.20;99.90;;;;;;5118330;28;20044;-96
2020/12/17 02:24:09;;;;;;;1999.90;999.90;;;9.10;99.90;;;;;;5117286;28;20117;-95
2020/12/17 02:26:37;;;;;;;1999.90;999.90;;;9.10;99.90;;;;;;5117528;28;20059;-95
2020/12/17 02:29:05;;;;;;;1999.90;999.90;;;9.10;99.90;;;;;;5117614;28;20044;-95
2020/12/17 02:31:35;;;;;;;1999.90;999.90;;;9.10;99.90;;;;;;5117156;28;20078;-95
2020/12/17 02:34:02;;;;;;;1999.90;999.90;;;9.10;99.90;;;;;;5117275;28;20134;-96
2020/12/17 02:36:30;;;;;;;1999.90;999.90;;;9.20;99.90;;;;;;5117555;28;20075;-95
2020/12/17 02:38:58;;;;;;;1999.90;999.90;;;9.20;99.90;;;;;;5117530;28;20078;-95
2020/12/17 02:41:25;;;;;;;1999.90;999.90;;;9.20;99.90;;;;;;5116930;28;20043;-95
2020/12/17 02:43:54;;;;;;;1999.90;999.90;;;9.20;99.90;;;;;;5119546;28;20059;-95
2020/12/17 02:46:21;;;;;;;1999.90;999.90;;;9.20;99.90;;;;;;5120250;28;20052;-95
2020/12/17 02:48:50;;;;;;;1999.90;999.90;;;9.20;99.90;;;;;;5122564;28;20131;-94
2020/12/17 02:51:18;;;;;;;1999.90;999.90;;;9.20;99.90;;;;;;5121318;28;20423;-95
2020/12/17 02:53:45;;;;;;;1999.90;999.90;;;9.20;99.90;;;;;;5124500;28;20440;-95
2020/12/17 02:56:13;;;;;;;1999.90;999.90;;;9.10;99.90;;;;;;5116903;28;20081;-95
2020/12/17 02:58:40;;;;;;;1999.90;999.90;;;9.20;99.90;;;;;;5117138;28;20067;-95
2020/12/17 03:01:09;;;;;;;1999.90;999.90;;;9.10;99.90;;;;;;5116695;28;20047;-95
2020/12/17 03:03:37;;;;;;;1999.90;999.90;;;9.10;99.90;;;;;;5117347;28;20052;-96
2020/12/17 03:06:04;;;;;;;1999.90;999.90;;;9.10;99.90;;;;;;5116954;28;20439;-96
2020/12/17 03:08:32;;;;;;;1999.90;999.90;;;9.10;99.90;;;;;;5116838;28;20048;-96
2020/12/17 03:10:59;;;;;;;1999.90;999.90;;;9.10;99.90;;;;;;5116268;28;20078;-95
2020/12/17 03:13:26;;;;;;;1999.90;999.90;;;9.10;99.90;;;;;;5105866;28;20391;-96
2020/12/17 03:15:53;;;;;;;1999.90;999.90;;;9.10;99.90;;;;;;5096515;28;20224;-96
2020/12/17 03:18:21;;;;;;;1999.90;999.90;;;9.20;99.90;;;;;;5096909;28;20139;-96
2020/12/17 03:20:49;;;;;;;1999.90;999.90;;;9.20;99.90;;;;;;5097319;28;20448;-96
2020/12/17 03:23:16;;;;;;;1999.90;999.90;;;9.10;99.90;;;;;;5096456;28;20078;-96
2020/12/17 03:25:44;;;;;;;1999.90;999.90;;;9.10;99.90;;;;;;5097601;28;20567;-96
2020/12/17 03:28:11;;;;;;;1999.90;999.90;;;9.10;99.90;;;;;;5097448;28;20051;-96
2020/12/17 03:30:38;;;;;;;1999.90;999.90;;;9.10;99.90;;;;;;5096834;28;20079;-96
2020/12/17 03:33:05;;;;;;;1999.90;999.90;;;9.10;99.90;;;;;;5096793;28;20055;-96
2020/12/17 03:35:33;;;;;;;1999.90;999.90;;;9.10;99.90;;;;;;5096546;28;20079;-96
2020/12/17 03:38:00;;;;;;;1999.90;999.90;;;9.10;99.90;;;;;;5096253;28;20051;-96
2020/12/17 03:40:28;;;;;;;1999.90;999.90;;;9.10;99.90;;;;;;5096056;28;20495;-96
2020/12/17 03:42:56;;;;;;;1999.90;999.90;;;9.10;99.90;;;;;;5096239;28;20118;-95
2020/12/17 03:45:23;;;;;;;1999.90;999.90;;;9.10;99.90;;;;;;5095138;28;20048;-95
2020/12/17 03:47:51;;;;;;;1999.90;999.90;;;9.10;99.90;;;;;;5095704;28;20130;-96
2020/12/17 03:50:18;;;;;;;1999.90;999.90;;;9.10;99.90;;;;;;5095355;28;20556;-96
2020/12/17 03:52:46;;;;;;;1999.90;999.90;;;9.10;99.90;;;;;;5095015;28;20108;-96
2020/12/17 03:55:14;;;;;;;1999.90;999.90;;;9.10;99.90;;;;;;5095061;28;20073;-95
2020/12/17 03:57:41;;;;;;;1999.90;999.90;;;9.10;99.90;;;;;;5095391;28;20080;-96
2020/12/17 04:00:08;;;;;;;1999.90;999.90;;;9.10;99.90;;;;;;5095297;28;20433;-96
2020/12/17 04:02:35;;;;;;;1999.90;999.90;;;9.10;99.90;;;;;;5095445;28;20090;-96
2020/12/17 04:05:02;;;;;;;1999.90;999.90;;;9.10;99.90;;;;;;5095718;28;20072;-95
2020/12/17 04:07:29;;;;;;;1999.90;999.90;;;9.10;99.90;;;;;;5094827;28;20052;-96
2020/12/17 04:09:57;;;;;;;1999.90;999.90;;;9.10;99.90;;;;;;5096001;28;20044;-96
2020/12/17 04:12:24;;;;;;;1999.90;999.90;;;9.10;99.90;;;;;;5095397;28;20062;-96
2020/12/17 04:14:51;;;;;;;1999.90;999.90;;;9.10;99.90;;;;;;5095517;28;20131;-96
2020/12/17 04:17:19;;;;;;;1999.90;999.90;;;9.10;99.90;;;;;;5096679;28;20459;-96
2020/12/17 04:19:46;;;;;;;1999.90;999.90;;;9.10;99.90;;;;;;5095639;28;20048;-95
2020/12/17 04:22:16;;;;;;;1999.90;999.90;;;9.10;99.90;;;;;;5095779;28;20052;-95
2020/12/17 04:24:46;;;;;;;1999.90;999.90;;;9.10;99.90;;;;;;5095172;28;20506;-95
2020/12/17 04:27:15;;;;;;;1999.90;999.90;;;9.10;99.90;;;;;;5094611;28;20064;-96
2020/12/17 04:29:42;;;;;;;1999.90;999.90;;;9.10;99.90;;;;;;5094356;28;20051;-95
2020/12/17 04:32:09;;;;;;;1999.90;999.90;;;9.00;99.90;;;;;;5094783;28;20052;-94
2020/12/17 04:34:36;;;;;;;1999.90;999.90;;;9.00;99.90;;;;;;5094483;28;20052;-92
2020/12/17 04:37:03;;;;;;;1999.90;999.90;;;9.00;99.90;;;;;;5093614;28;20486;-92
2020/12/17 04:39:30;;;;;;;1999.90;999.90;;;9.00;99.90;;;;;;5093674;28;20079;-91
2020/12/17 04:41:58;;;;;;;1999.90;999.90;;;9.00;99.90;;;;;;5081139;28;20048;-92
2020/12/17 04:44:27;;;;;;;1999.90;999.90;;;9.00;99.90;;;;;;5093595;28;20052;-92
2020/12/17 04:46:59;;;;;;;1999.90;999.90;;;9.00;99.90;;;;;;5099436;28;20055;-92
2020/12/17 04:49:32;;;;;;;1999.90;999.90;;;9.00;99.90;;;;;;5101141;28;20328;-92
2020/12/17 04:52:00;;;;;;;1999.90;999.90;;;9.00;99.90;;;;;;5099804;28;20044;-92
2020/12/17 04:54:28;;;;;;;1999.90;999.90;;;9.00;99.90;;;;;;5093075;28;20076;-92
2020/12/17 04:57:06;;;;;;;1999.90;999.90;;;9.00;99.90;;;;;;5093089;28;20072;-92
2020/12/17 04:59:43;;;;;;;1999.90;999.90;;;9.00;99.90;;;;;;5095117;28;20247;-92
2020/12/17 05:02:11;;;;;;;1999.90;999.90;;;9.00;99.90;;;;;;5102585;28;20052;-93
2020/12/17 05:04:39;;;;;;;1999.90;999.90;;;9.00;99.90;;;;;;5104293;28;20044;-92
2020/12/17 05:07:08;;;;;;;1999.90;999.90;;;9.00;99.90;;;;;;5093063;28;20108;-92
2020/12/17 05:09:38;;;;;;;1999.90;999.90;;;9.00;99.90;;;;;;5080161;28;20040;-92
2020/12/17 05:12:05;;;;;;;1999.90;999.90;;;9.00;99.90;;;;;;5095188;28;20078;-91
2020/12/17 05:14:32;;;;;;;1999.90;999.90;;;9.00;99.90;;;;;;5113223;28;20486;-91
2020/12/17 05:17:01;;;;;;;1999.90;999.90;;;9.10;99.90;;;;;;5113487;28;20047;-92
2020/12/17 05:19:28;;;;;;;1999.90;999.90;;;9.00;99.90;;;;;;5116114;28;20105;-92
2020/12/17 05:21:56;;;;;;;1999.90;999.90;;;9.00;99.90;;;;;;5118485;28;20075;-92
2020/12/17 05:24:24;;;;;;;1999.90;999.90;;;9.00;99.90;;;;;;5122498;27;20082;-92
2020/12/17 05:26:53;;;;;;;1999.90;999.90;;;9.00;99.90;;;;;;5118225;27;20130;-92
2020/12/17 05:29:26;;;;;;;1999.90;999.90;;;9.00;99.90;;;;;;5117800;27;20500;-92
2020/12/17 05:31:53;;;;;;;1999.90;999.90;;;9.00;99.90;;;;;;5118625;27;20095;-92
2020/12/17 05:34:22;;;;;;;1999.90;999.90;;;9.00;99.90;;;;;;5115698;28;20435;-92
2020/12/17 05:36:49;;;;;;;1999.90;999.90;;;9.00;99.90;;;;;;5116112;27;20134;-92
2020/12/17 05:39:19;;;;;;;1999.90;999.90;;;9.10;99.90;;;;;;5124177;27;20851;-92
2020/12/17 05:41:47;;;;;;;1999.90;999.90;;;9.10;99.90;;;;;;5110786;28;20055;-92
2020/12/17 05:44:16;;;;;;;1999.90;999.90;;;9.10;99.90;;;;;;5115622;28;20055;-91
2020/12/17 05:46:44;;;;;;;1999.90;999.90;;;9.00;99.90;;;;;;5114257;27;20126;-91
2020/12/17 05:49:14;;;;;;;1999.90;999.90;;;9.00;99.90;;;;;;5110331;28;20044;-91
2020/12/17 05:51:43;;;;;;;1999.90;999.90;;;9.00;99.90;;;;;;5117451;27;20066;-91
2020/12/17 05:54:11;;;;;;;1999.90;999.90;;;9.00;99.90;;;;;;5117490;28;20051;-91
2020/12/17 05:56:38;;;;;;;1999.90;999.90;;;9.00;99.90;;;;;;5105145;28;20498;-92
2020/12/17 05:59:06;;;;;;;1999.90;999.90;;;8.90;99.90;;;;;;5115429;27;20043;-92
2020/12/17 06:01:33;;;;;;;1999.90;999.90;;;8.90;99.90;;;;;;5117036;28;20379;-92
2020/12/17 06:04:14;;;;;;;1999.90;999.90;;;8.90;99.90;;;;;;5126560;27;20453;-92
2020/12/17 06:06:46;;;;;;;1999.90;999.90;;;8.90;99.90;;;;;;5120513;27;20059;-92
2020/12/17 06:09:23;;;;;;;1999.90;999.90;;;8.90;99.90;;;;;;5106945;28;20150;-92
2020/12/17 06:11:51;;;;;;;1999.90;999.90;;;8.90;99.90;;;;;;5125937;27;20078;-91
2020/12/17 06:14:21;;;;;;;1999.90;999.90;;;8.90;99.90;;;;;;5119669;27;20079;-91
2020/12/17 06:16:53;;;;;;;1999.90;999.90;;;8.90;99.90;;;;;;5127284;27;20078;-91
2020/12/17 06:19:23;;;;;;;1999.90;999.90;;;8.90;99.90;;;;;;5116814;28;20100;-91
2020/12/17 06:21:51;;;;;;;1999.90;999.90;;;8.80;99.90;;;;;;5117711;28;20140;-91
2020/12/17 06:24:20;;;;;;;1999.90;999.90;;;8.80;99.90;;;;;;5120413;27;20061;-91
2020/12/17 06:26:52;;;;;;;1999.90;999.90;;;8.80;99.90;;;;;;5125084;27;20082;-91
2020/12/17 06:29:20;;;;;;;1999.90;999.90;;;8.80;99.90;;;;;;5118015;27;20153;-91
2020/12/17 06:31:56;;;;;;;1999.90;999.90;;;8.80;99.90;;;;;;5115848;28;20481;-91
2020/12/17 06:34:24;;;;;;;1999.90;999.90;;;8.80;99.90;;;;;;5118979;27;20126;-91
2020/12/17 06:36:57;;;;;;;1999.90;999.90;;;8.80;99.90;;;;;;5106171;27;20403;-91
2020/12/17 06:39:24;;;;;;;1999.90;999.90;;;8.80;99.90;;;;;;5121338;27;20503;-91
2020/12/17 06:41:51;;;;;;;1999.90;999.90;;;8.80;99.90;;;;;;5121499;27;20138;-91
2020/12/17 06:44:26;;;;;;;1999.90;999.90;;;8.80;99.90;;;;;;5116801;27;20142;-91
2020/12/17 06:46:55;;;;;;;1999.90;999.90;;;8.80;99.90;;;;;;5116510;27;20040;-91
2020/12/17 06:49:27;;;;;;;1999.90;999.90;;;8.80;99.90;;;;;;5115866;28;20135;-91
2020/12/17 06:52:03;;;;;;;1999.90;999.90;;;8.90;99.90;;;;;;5115802;27;20139;-91
2020/12/17 06:54:37;;;;;;;1999.90;999.90;;;8.80;99.90;;;;;;5122828;27;20086;-91
2020/12/17 06:57:05;;;;;;;1999.90;999.90;;;8.80;99.90;;;;;;5124884;27;20115;-91
2020/12/17 06:59:33;;;;;;;1999.90;999.90;;;8.80;99.90;;;;;;5126411;27;20048;-90
2020/12/17 07:02:00;;;;;;;1999.90;999.90;;;8.80;99.90;;;;;;5115288;27;20489;-91
2020/12/17 07:04:40;;;;;;;1999.90;999.90;;;8.80;99.90;;;;;;5125283;27;20139;-91
2020/12/17 07:07:13;;;;;;;1999.90;999.90;;;8.80;99.90;;;;;;5115182;28;20059;-91
2020/12/17 07:09:41;;;;;;;1999.90;999.90;;;8.80;99.90;;;;;;5121474;27;20040;-91
2020/12/17 07:12:10;;;;;;;1999.90;999.90;;;8.80;99.90;;;;;;5115259;28;20052;-91
2020/12/17 07:14:39;;;;;;;1999.90;999.90;;;8.80;99.90;;;;;;5116048;27;20457;-91
2020/12/17 07:17:08;;;;;;;1999.90;999.90;;;8.80;99.90;;;;;;5113717;28;20097;-91
2020/12/17 07:19:40;;;;;;;1999.90;999.90;;;8.80;99.90;;;;;;5115545;27;20171;-91
2020/12/17 07:22:11;;;;;;;1999.90;999.90;;;8.80;99.90;;;;;;5125758;27;20093;-91
2020/12/17 07:24:40;;;;;;;1999.90;999.90;;;8.90;99.90;;;;;;5114942;28;20161;-91
2020/12/17 07:27:12;;;;;;;1999.90;999.90;;;8.90;99.90;;;;;;5116140;28;20063;-91
2020/12/17 07:29:50;;;;;;;1999.90;999.90;;;8.90;99.90;;;;;;5119467;27;20127;-92
2020/12/17 07:32:36;;;;;;;1999.90;999.90;;;8.80;99.90;;;;;;5111670;28;20064;-92
2020/12/17 07:35:18;;;;;;;1999.90;999.90;;;8.80;99.90;;;;;;5101973;28;20054;-92
2020/12/17 07:37:49;;;;;;;1999.90;999.90;;;8.80;99.90;;;;;;5113743;28;20481;-91
2020/12/17 07:40:26;;;;;;;1999.90;999.90;;;8.80;99.90;;;;;;5102747;28;20112;-92
2020/12/17 07:43:09;;;;;;;1999.90;999.90;;;8.80;99.90;;;;;;5114422;28;20055;-91
2020/12/17 07:45:56;;;;;;;1999.90;999.90;;;8.80;99.90;;;;;;5102271;28;20059;-91
2020/12/17 07:48:41;;;;;;;1999.90;999.90;;;8.70;99.90;;;;;;5113569;28;20094;-92
2020/12/17 07:51:26;;;;;;;1999.90;999.90;;;8.70;99.90;;;;;;5112845;28;20052;-91
2020/12/17 07:53:53;;;;;;;1999.90;999.90;;;8.60;99.90;;;;;;5103068;28;20052;-91
2020/12/17 07:56:22;;;;;;;1999.90;999.90;;;8.70;99.90;;;;;;5114884;28;20108;-92
2020/12/17 07:58:51;;;;;;;1999.90;999.90;;;8.70;99.90;;;;;;5105975;28;20450;-92
2020/12/17 08:01:21;;;;;;;1999.90;999.90;;;8.70;99.90;;;;;;5113822;28;20069;-91
2020/12/17 08:03:50;;;;;;;1999.90;999.90;;;8.60;99.90;;;;;;5114504;28;20100;-91
2020/12/17 08:06:19;;;;;;;1999.90;999.90;;;8.70;99.90;;;;;;5114843;28;20051;-92
2020/12/17 08:08:53;;;;;;;1999.90;999.90;;;8.70;99.90;;;;;;5113556;28;20593;-91
2020/12/17 08:11:33;;;;;;;1999.90;999.90;;;8.70;99.90;;;;;;5114209;28;20078;-92
2020/12/17 08:14:03;;;;;;;1999.90;999.90;;;8.70;99.90;;;;;;5113033;28;20134;-91
2020/12/17 08:16:31;;;;;;;1999.90;999.90;;;8.70;99.90;;;;;;5114383;28;20067;-91
2020/12/17 08:18:59;;;;;;;1999.90;999.90;;;8.70;99.90;;;;;;5113472;28;20095;-92
2020/12/17 08:21:28;;;;;;;1999.90;999.90;;;8.70;99.90;;;;;;5107939;28;20055;-91
2020/12/17 08:23:55;;;;;;;1999.90;999.90;;;8.70;99.90;;;;;;5114279;28;20466;-91
2020/12/17 08:26:24;;;;;;;1999.90;999.90;;;8.70;99.90;;;;;;5114090;28;20063;-91
2020/12/17 08:28:52;;;;;;;1999.90;999.90;;;8.70;99.90;;;;;;5107460;28;20044;-91
2020/12/17 08:31:21;;;;;;;1999.90;999.90;;;8.80;99.90;;;;;;5113671;28;20043;-91
2020/12/17 08:33:50;;;;;;;1999.90;999.90;;;8.80;99.90;;;;;;5102901;28;20055;-91
2020/12/17 08:36:20;;;;;;;1999.90;999.90;;;8.80;99.90;;;;;;5110463;28;20108;-91
2020/12/17 08:38:55;;;;;;;1999.90;999.90;;;8.70;99.90;;;;;;5114371;28;20089;-91
2020/12/17 08:41:25;;;;;;;;;;;8.80;99.90;;;;;;5113418;28;20061;-91
2020/12/17 08:43:54;;;;;;;1999.90;999.90;;;8.80;99.90;;;;;;5113625;28;19983;-91
2020/12/17 08:46:26;;;;;;;1999.90;999.90;;;8.70;99.90;;;;;;5113198;28;20517;-91
2020/12/17 08:48:54;;;;;;;1999.90;999.90;;;8.80;99.90;;;;;;5110055;28;20048;-90
2020/12/17 08:51:23;;;;;;;1999.90;999.90;;;8.80;99.90;;;;;;5113298;28;20051;-91
2020/12/17 08:53:53;;;;;;;1999.90;999.90;;;8.80;99.90;;;;;;5108186;28;20094;-90
2020/12/17 08:56:22;;;;;;;1999.90;999.90;;;8.80;99.90;;;;;;5112624;28;20393;-91
2020/12/17 08:58:54;;;;;;;1999.90;999.90;;;8.90;99.90;;;;;;5112949;28;20056;-91
2020/12/17 09:01:26;;;;;;;1999.90;999.90;;;8.90;99.90;;;;;;5113215;28;20535;-91
2020/12/17 09:03:55;;;;;;;1999.90;999.90;;;8.90;99.90;;;;;;5112912;28;20294;-91
2020/12/17 09:06:27;;;;;;;1999.90;999.90;;;8.90;99.90;;;;;;5109779;28;20083;-91
2020/12/17 09:09:09;;;;;;;1999.90;999.90;;;8.90;99.90;;;;;;5105757;28;20486;-89
2020/12/17 09:11:38;;;;;;;1999.90;999.90;;;9.00;99.90;;;;;;5110905;28;20448;-92
2020/12/17 09:14:08;;;;;;;1999.90;999.90;;;9.00;99.90;;;;;;5112393;28;20104;-92
2020/12/17 09:16:36;;;;;;;1999.90;999.90;;;9.00;99.90;;;;;;5112631;28;20073;-91
2020/12/17 09:19:07;;;;;;;1999.90;999.90;;;9.00;99.90;;;;;;5109029;28;20469;-92
2020/12/17 09:21:36;;;;;;;1999.90;999.90;;;8.90;99.90;;;;;;5112968;28;20410;-92
2020/12/17 09:24:04;;;;;;;1999.90;999.90;;;9.00;99.90;;;;;;5111960;28;20048;-92
2020/12/17 09:26:32;;;;;;;1999.90;999.90;;;9.00;99.90;;;;;;5106848;28;20421;-92
2020/12/17 09:29:01;;;;;;;1999.90;999.90;;;9.00;99.90;;;;;;5112974;28;20427;-92
2020/12/17 09:31:34;;;;;;;1999.90;999.90;;;9.00;99.90;;;;;;5106990;28;20051;-92
2020/12/17 09:34:10;;;;;;;1999.90;999.90;;;9.10;99.90;;;;;;5113206;28;20120;-92
2020/12/17 09:36:38;;;;;;;1999.90;999.90;;;9.10;99.90;;;;;;5112387;28;20174;-93
2020/12/17 09:39:09;;;;;;;1999.90;999.90;;;9.10;99.90;;;;;;5112552;28;20139;-92
2020/12/17 09:41:37;;;;;;;1999.90;999.90;;;9.10;99.90;;;;;;5112059;28;20047;-92
2020/12/17 09:44:05;;;;;;;1999.90;999.90;;;9.20;99.90;;;;;;5112301;28;20071;-92
2020/12/17 09:46:45;;;;;;;1999.90;999.90;;;9.20;99.90;;;;;;5111702;28;20056;-92
2020/12/17 09:49:27;;;;;;;1999.90;999.90;;;9.10;99.90;;;;;;5112014;28;20467;-92
2020/12/17 09:52:13;;;;;;;1999.90;999.90;;;9.20;99.90;;;;;;5110432;28;20071;-92
2020/12/17 09:54:41;;;;;;;;;;;9.10;99.90;;;;;;5112167;28;20179;-93
2020/12/17 09:57:10;;;;;;;1999.90;999.90;;;9.20;99.90;;;;;;5116607;28;19920;-93
2020/12/17 09:59:38;;;;;;;1999.90;999.90;;;9.20;99.90;;;;;;5112793;28;20051;-92
2020/12/17 10:02:09;;;;;;;1999.90;999.90;;;9.10;99.90;;;;;;5111940;28;20441;-92
2020/12/17 10:04:36;;;;;;;1999.90;999.90;;;9.20;99.90;;;;;;5103163;28;20599;-92
2020/12/17 10:07:04;;;;;;;1999.90;999.90;;;9.20;99.90;;;;;;5115538;28;20413;-92
2020/12/17 10:09:31;;;;;;;1999.90;999.90;;;9.20;99.90;;;;;;5115554;27;20068;-93
2020/12/17 10:11:59;;;;;;;1999.90;999.90;;;9.20;99.90;;;;;;5111171;28;20063;-93
2020/12/17 10:14:27;;;;;;;1999.90;999.90;;;9.20;99.90;;;;;;5115662;28;20052;-93
2020/12/17 10:17:00;;;;;;;1999.90;999.90;;;9.30;99.90;;;;;;5113753;28;20055;-92
2020/12/17 10:19:30;;;;;;;1999.90;999.90;;;9.30;99.90;;;;;;5116209;28;20062;-92
2020/12/17 10:21:58;;;;;;;1999.90;999.90;;;9.30;99.90;;;;;;5116332;28;20066;-92
2020/12/17 10:24:26;;;;;;;1999.90;999.90;;;9.30;99.90;;;;;;5115849;28;20120;-91
2020/12/17 10:26:54;;;;;;;1999.90;999.90;;;9.30;99.90;;;;;;5115004;28;20055;-92
2020/12/17 10:29:25;;;;;;;1999.90;999.90;;;9.30;99.90;;;;;;5115060;28;20051;-92
2020/12/17 10:31:52;;;;;;;1999.90;999.90;;;9.30;99.90;;;;;;5123299;27;20852;-91
2020/12/17 10:34:19;;;;;;;1999.90;999.90;;;9.30;99.90;;;;;;5115570;28;20048;-92
2020/12/17 10:36:47;;;;;;;1999.90;999.90;;;9.40;99.90;;;;;;5116115;28;20059;-92
2020/12/17 10:39:15;;;;;;;1999.90;999.90;;;9.40;99.90;;;;;;5110507;28;20063;-92
2020/12/17 10:41:42;;;;;;;1999.90;999.90;;;9.40;99.90;;;;;;5112092;28;20048;-92
2020/12/17 10:44:10;;;;;;;1999.90;999.90;;;9.50;99.90;;;;;;5114131;28;20043;-91
2020/12/17 10:46:38;;;;;;;1999.90;999.90;;;9.40;99.90;;;;;;5116051;28;20055;-91
2020/12/17 10:49:07;;;;;;;1999.90;999.90;;;9.40;99.90;;;;;;5116558;28;20083;-91
2020/12/17 10:51:34;;;;;;;1999.90;999.90;;;9.40;99.90;;;;;;5114974;28;20094;-91
2020/12/17 10:54:03;;;;;;;1999.90;999.90;;;9.40;99.90;;;;;;5115063;28;20135;-92
2020/12/17 10:56:30;;;;;;;1999.90;999.90;;;9.40;99.90;;;;;;5115643;28;20047;-91
2020/12/17 10:58:57;;;;;;;1999.90;999.90;;;9.50;99.90;;;;;;5114928;28;20074;-91
2020/12/17 11:01:24;;;;;;;1999.90;999.90;;;9.50;99.90;;;;;;5115398;28;20100;-90
2020/12/17 11:03:53;;;;;;;1999.90;999.90;;;9.50;99.90;;;;;;5114472;28;20119;-91
2020/12/17 11:06:22;;;;;;;1999.90;999.90;;;9.40;99.90;;;;;;5114910;28;20077;-90
2020/12/17 11:08:50;;;;;;;1999.90;999.90;;;9.40;99.90;;;;;;5114638;28;20117;-90
2020/12/17 11:11:18;;;;;;;1999.90;999.90;;;9.40;99.90;;;;;;5114399;28;20091;-90
2020/12/17 11:13:45;;;;;;;1999.90;999.90;;;9.40;99.90;;;;;;5114647;28;20060;-90
2020/12/17 11:16:13;;;;;;;1999.90;999.90;;;9.40;99.90;;;;;;5113137;27;20048;-90
2020/12/17 11:18:40;;;;;;;1999.90;999.90;;;9.40;99.90;;;;;;5110816;28;20562;-91
2020/12/17 11:21:07;;;;;;;1999.90;999.90;;;9.40;99.90;;;;;;5114356;28;20047;-91
2020/12/17 11:23:35;;;;;;;1999.90;999.90;;;9.40;99.90;;;;;;5115115;28;20055;-90
2020/12/17 11:26:02;;;;;;;1999.90;999.90;;;9.50;99.90;;;;;;5113950;28;21475;-90
2020/12/17 11:28:30;;;;;;;1999.90;999.90;;;9.50;99.90;;;;;;5114712;28;20056;-91
2020/12/17 11:30:58;;;;;;;1999.90;999.90;;;9.50;99.90;;;;;;5112387;27;20466;-91
2020/12/17 11:33:25;;;;;;;1999.90;999.90;;;9.50;99.90;;;;;;5114565;28;20130;-90
2020/12/17 11:35:53;;;;;;;1999.90;999.90;;;9.50;99.90;;;;;;5115157;28;20100;-92
2020/12/17 11:38:20;;;;;;;1999.90;999.90;;;9.60;99.90;;;;;;5112893;28;20160;-90
2020/12/17 11:40:50;;;;;;;1999.90;999.90;;;9.60;99.90;;;;;;5114311;28;20162;-91
2020/12/17 11:43:33;;;;;;;1999.90;999.90;;;9.60;99.90;;;;;;5119605;28;20043;-91
2020/12/17 11:46:01;;;;;;;1999.90;999.90;;;9.60;99.90;;;;;;5131879;27;20465;-90
2020/12/17 11:48:28;;;;;;;1999.90;999.90;;;9.60;99.90;;;;;;5118072;28;20191;-91
2020/12/17 11:50:56;;;;;;;1999.90;999.90;;;9.60;99.90;;;;;;5117868;28;20056;-90
2020/12/17 11:53:23;;;;;;;1999.90;999.90;;;9.60;99.90;;;;;;5112057;28;20059;-91
2020/12/17 11:55:50;;;;;;;1999.90;999.90;;;9.70;99.90;;;;;;5115416;28;20136;-91
2020/12/17 11:58:17;;;;;;;1999.90;999.90;;;9.70;99.90;;;;;;5115020;28;20075;-91
2020/12/17 12:00:46;;;;;;;1999.90;999.90;;;9.70;99.90;;;;;;5118730;27;20040;-91
2020/12/17 12:03:13;;;;;;;1999.90;999.90;;;9.70;99.90;;;;;;5108895;28;20106;-90
2020/12/17 12:05:40;;;;;;;1999.90;999.90;;;9.80;99.90;;;;;;5112796;28;20527;-91
2020/12/17 12:08:08;;;;;;;1999.90;999.90;;;9.80;99.90;;;;;;5113453;28;20057;-90
2020/12/17 12:10:35;;;;;;;1999.90;999.90;;;9.80;99.90;;;;;;5099476;28;20135;-90
2020/12/17 12:13:02;;;;;;;1999.90;999.90;;;9.80;99.90;;;;;;5123458;27;20052;-90
2020/12/17 12:15:29;;;;;;;1999.90;999.90;;;9.70;99.90;;;;;;5112614;28;20059;-90
2020/12/17 12:17:57;;;;;;;1999.90;999.90;;;9.70;99.90;;;;;;5111984;28;20473;-91